sensor_id;sensor_type;location;lat;lon;timestamp;P1;durP1;ratioP1;P2;durP2;ratioP2
8777;SDS011;4425;50.872;4.712;2023-07-02T08:02:18;21.40;;;11.60;;
8777;SDS011;4425;50.872;4.712;2023-07-02T08:04:45;21.73;;;11.65;;
8777;SDS011;4425;50.872;4.712;2023-07-02T08:07:12;22.10;;;11.75;;
8777;SDS011;4425;50.872;4.712;2023-07-02T08:09:39;20.13;;;11.52;;
8777;SDS011;4425;50.872;4.712;2023-07-02T08:12:06;20.52;;;9.88;;
8777;SDS011;4425;50.872;4.712;2023-07-02T08:14:34;17.05;;;9.10;;
8777;SDS011;4425;50.872;4.712;2023-07-02T08:17:01;18.52;;;9.77;;
8777;SDS011;4425;50.872;4.712;2023-07-02T08:22:14;17.45;;;10.07;;
8777;SDS011;4425;50.872;4.712;2023-07-02T08:24:41;19.52;;;9.98;;
8777;SDS011;4425;50.872;4.712;2023-07-02T08:27:22;21.13;;;10.15;;
8777;SDS011;4425;50.872;4.712;2023-07-02T08:29:50;14.88;;;9.13;;
8777;SDS011;4425;50.872;4.712;2023-07-02T08:32:18;16.98;;;9.43;;
8777;SDS011;4425;50.872;4.712;2023-07-02T08:34:46;19.00;;;9.18;;
8777;SDS011;4425;50.872;4.712;2023-07-02T08:37:13;19.92;;;9.90;;
8777;SDS011;4425;50.872;4.712;2023-07-02T08:39:40;19.08;;;9.20;;
8777;SDS011;4425;50.872;4.712;2023-07-02T08:42:08;18.75;;;9.52;;
8777;SDS011;4425;50.872;4.712;2023-07-02T08:44:37;19.25;;;10.27;;
8777;SDS011;4425;50.872;4.712;2023-07-02T08:47:05;17.17;;;9.90;;
8777;SDS011;4425;50.872;4.712;2023-07-02T08:49:32;20.92;;;10.07;;
8777;SDS011;4425;50.872;4.712;2023-07-02T08:52:04;17.73;;;9.93;;
8777;SDS011;4425;50.872;4.712;2023-07-02T08:54:31;19.88;;;9.93;;
8777;SDS011;4425;50.872;4.712;2023-07-02T08:57:00;19.42;;;10.55;;
8777;SDS011;4425;50.872;4.712;2023-07-02T08:59:30;22.60;;;10.88;;
8777;SDS011;4425;50.872;4.712;2023-07-02T09:01:58;20.33;;;10.73;;
8777;SDS011;4425;50.872;4.712;2023-07-02T09:04:26;18.55;;;10.27;;
8777;SDS011;4425;50.872;4.712;2023-07-02T09:07:06;17.42;;;10.68;;
8777;SDS011;4425;50.872;4.712;2023-07-02T09:09:44;21.67;;;10.77;;
8777;SDS011;4425;50.872;4.712;2023-07-02T09:12:28;15.65;;;10.07;;
8777;SDS011;4425;50.872;4.712;2023-07-02T09:14:56;22.48;;;10.82;;
8777;SDS011;4425;50.872;4.712;2023-07-02T09:17:35;20.70;;;10.40;;
8777;SDS011;4425;50.872;4.712;2023-07-02T09:20:03;21.23;;;11.15;;
8777;SDS011;4425;50.872;4.712;2023-07-02T09:22:34;20.58;;;11.00;;
8777;SDS011;4425;50.872;4.712;2023-07-02T09:25:02;18.83;;;10.55;;
8777;SDS011;4425;50.872;4.712;2023-07-02T09:27:33;18.92;;;10.98;;
8777;SDS011;4425;50.872;4.712;2023-07-02T09:30:05;22.85;;;11.63;;
8777;SDS011;4425;50.872;4.712;2023-07-02T09:32:33;22.48;;;11.52;;
8777;SDS011;4425;50.872;4.712;2023-07-02T09:35:00;18.55;;;11.80;;
8777;SDS011;4425;50.872;4.712;2023-07-02T09:37:29;25.65;;;12.30;;
8777;SDS011;4425;50.872;4.712;2023-07-02T09:39:58;22.48;;;12.63;;
8777;SDS011;4425;50.872;4.712;2023-07-02T09:42:25;24.38;;;12.63;;
8777;SDS011;4425;50.872;4.712;2023-07-02T09:44:54;22.55;;;12.68;;
8777;SDS011;4425;50.872;4.712;2023-07-02T09:47:24;23.02;;;13.20;;
8777;SDS011;4425;50.872;4.712;2023-07-02T09:49:53;22.83;;;12.68;;
8777;SDS011;4425;50.872;4.712;2023-07-02T09:52:21;24.67;;;13.57;;
8777;SDS011;4425;50.872;4.712;2023-07-02T09:54:49;26.75;;;12.88;;
8777;SDS011;4425;50.872;4.712;2023-07-02T09:57:18;26.02;;;13.07;;
8777;SDS011;4425;50.872;4.712;2023-07-02T09:59:45;20.75;;;13.15;;
8777;SDS011;4425;50.872;4.712;2023-07-02T10:02:13;26.48;;;13.57;;
8777;SDS011;4425;50.872;4.712;2023-07-02T10:04:41;20.88;;;13.10;;
8777;SDS011;4425;50.872;4.712;2023-07-02T10:07:09;22.23;;;12.80;;
8777;SDS011;4425;50.872;4.712;2023-07-02T10:09:37;22.85;;;12.23;;
8777;SDS011;4425;50.872;4.712;2023-07-02T10:12:15;24.77;;;12.40;;
8777;SDS011;4425;50.872;4.712;2023-07-02T10:14:45;23.77;;;12.95;;
8777;SDS011;4425;50.872;4.712;2023-07-02T10:17:22;21.83;;;12.15;;
8777;SDS011;4425;50.872;4.712;2023-07-02T10:19:51;25.27;;;12.43;;
8777;SDS011;4425;50.872;4.712;2023-07-02T10:22:18;28.15;;;13.25;;
8777;SDS011;4425;50.872;4.712;2023-07-02T10:24:52;23.52;;;11.73;;
8777;SDS011;4425;50.872;4.712;2023-07-02T10:27:33;22.83;;;12.88;;
8777;SDS011;4425;50.872;4.712;2023-07-02T10:30:01;23.60;;;12.57;;
8777;SDS011;4425;50.872;4.712;2023-07-02T10:32:29;23.23;;;11.32;;
8777;SDS011;4425;50.872;4.712;2023-07-02T10:34:58;27.02;;;12.60;;
8777;SDS011;4425;50.872;4.712;2023-07-02T10:37:34;20.98;;;11.63;;
8777;SDS011;4425;50.872;4.712;2023-07-02T10:40:03;23.30;;;11.40;;
8777;SDS011;4425;50.872;4.712;2023-07-02T10:42:31;20.58;;;11.80;;
8777;SDS011;4425;50.872;4.712;2023-07-02T10:45:00;24.08;;;11.35;;
8777;SDS011;4425;50.872;4.712;2023-07-02T10:47:28;24.40;;;11.63;;
8777;SDS011;4425;50.872;4.712;2023-07-02T10:49:56;22.10;;;11.45;;
8777;SDS011;4425;50.872;4.712;2023-07-02T10:52:22;25.40;;;12.15;;
8777;SDS011;4425;50.872;4.712;2023-07-02T10:54:49;18.00;;;11.73;;
8777;SDS011;4425;50.872;4.712;2023-07-02T10:57:17;19.60;;;11.80;;
8777;SDS011;4425;50.872;4.712;2023-07-02T10:59:46;21.95;;;11.85;;
8777;SDS011;4425;50.872;4.712;2023-07-02T11:02:14;20.38;;;11.52;;
8777;SDS011;4425;50.872;4.712;2023-07-02T11:04:42;21.63;;;11.48;;
8777;SDS011;4425;50.872;4.712;2023-07-02T11:07:09;26.88;;;12.27;;
8777;SDS011;4425;50.872;4.712;2023-07-02T11:09:37;20.33;;;11.80;;
8777;SDS011;4425;50.872;4.712;2023-07-02T11:12:07;24.23;;;12.20;;
8777;SDS011;4425;50.872;4.712;2023-07-02T11:14:35;19.10;;;11.68;;
8777;SDS011;4425;50.872;4.712;2023-07-02T11:17:03;23.73;;;11.48;;
8777;SDS011;4425;50.872;4.712;2023-07-02T11:19:33;20.73;;;11.57;;
8777;SDS011;4425;50.872;4.712;2023-07-02T11:22:00;25.90;;;11.90;;
8777;SDS011;4425;50.872;4.712;2023-07-02T11:24:28;27.85;;;11.50;;
8777;SDS011;4425;50.872;4.712;2023-07-02T11:26:57;21.83;;;10.93;;
8777;SDS011;4425;50.872;4.712;2023-07-02T11:29:25;20.85;;;11.20;;
8777;SDS011;4425;50.872;4.712;2023-07-02T11:31:52;31.27;;;12.60;;
8777;SDS011;4425;50.872;4.712;2023-07-02T11:34:20;23.17;;;11.50;;
8777;SDS011;4425;50.872;4.712;2023-07-02T11:36:50;23.23;;;11.50;;
8777;SDS011;4425;50.872;4.712;2023-07-02T11:39:19;20.95;;;11.55;;
8777;SDS011;4425;50.872;4.712;2023-07-02T11:41:47;19.65;;;11.43;;
8777;SDS011;4425;50.872;4.712;2023-07-02T11:44:15;22.30;;;11.73;;
8777;SDS011;4425;50.872;4.712;2023-07-02T11:46:42;24.60;;;11.65;;
8777;SDS011;4425;50.872;4.712;2023-07-02T11:49:09;21.02;;;11.45;;
8777;SDS011;4425;50.872;4.712;2023-07-02T11:51:36;25.48;;;12.07;;
8777;SDS011;4425;50.872;4.712;2023-07-02T11:54:05;18.38;;;10.93;;
8777;SDS011;4425;50.872;4.712;2023-07-02T11:56:33;19.48;;;11.10;;
8777;SDS011;4425;50.872;4.712;2023-07-02T11:59:00;19.17;;;10.50;;
8777;SDS011;4425;50.872;4.712;2023-07-02T12:01:27;20.23;;;10.82;;
8777;SDS011;4425;50.872;4.712;2023-07-02T12:03:54;19.42;;;10.88;;
8777;SDS011;4425;50.872;4.712;2023-07-02T12:06:21;21.05;;;10.65;;
8777;SDS011;4425;50.872;4.712;2023-07-02T12:08:48;1.85;;;1.75;;
8777;SDS011;4425;50.872;4.712;2023-07-02T12:11:16;22.23;;;10.73;;
8777;SDS011;4425;50.872;4.712;2023-07-02T12:13:43;20.77;;;10.98;;
8777;SDS011;4425;50.872;4.712;2023-07-02T12:16:10;18.25;;;9.85;;
8777;SDS011;4425;50.872;4.712;2023-07-02T12:18:37;22.73;;;11.00;;
8777;SDS011;4425;50.872;4.712;2023-07-02T12:21:04;17.60;;;10.38;;
8777;SDS011;4425;50.872;4.712;2023-07-02T12:23:31;19.27;;;10.48;;
8777;SDS011;4425;50.872;4.712;2023-07-02T12:25:58;18.27;;;10.18;;
8777;SDS011;4425;50.872;4.712;2023-07-02T12:28:26;19.65;;;10.13;;
8777;SDS011;4425;50.872;4.712;2023-07-02T12:30:53;16.38;;;9.65;;
8777;SDS011;4425;50.872;4.712;2023-07-02T12:33:20;18.27;;;10.07;;
8777;SDS011;4425;50.872;4.712;2023-07-02T12:35:47;19.98;;;10.25;;
8777;SDS011;4425;50.872;4.712;2023-07-02T12:38:14;20.65;;;10.25;;
8777;SDS011;4425;50.872;4.712;2023-07-02T12:40:41;19.23;;;9.98;;
8777;SDS011;4425;50.872;4.712;2023-07-02T12:43:08;20.45;;;10.18;;
8777;SDS011;4425;50.872;4.712;2023-07-02T12:45:36;25.98;;;10.25;;
8777;SDS011;4425;50.872;4.712;2023-07-02T12:48:03;18.30;;;9.77;;
8777;SDS011;4425;50.872;4.712;2023-07-02T12:50:30;20.58;;;9.73;;
8777;SDS011;4425;50.872;4.712;2023-07-02T12:52:57;17.05;;;10.23;;
8777;SDS011;4425;50.872;4.712;2023-07-02T12:55:24;17.85;;;9.73;;
8777;SDS011;4425;50.872;4.712;2023-07-02T12:57:51;15.68;;;9.57;;
8777;SDS011;4425;50.872;4.712;2023-07-02T13:00:18;17.20;;;9.63;;
8777;SDS011;4425;50.872;4.712;2023-07-02T13:02:48;14.95;;;9.32;;
8777;SDS011;4425;50.872;4.712;2023-07-02T13:05:15;17.15;;;9.20;;
8777;SDS011;4425;50.872;4.712;2023-07-02T13:07:42;17.40;;;10.07;;
8777;SDS011;4425;50.872;4.712;2023-07-02T13:10:09;17.13;;;9.15;;
8777;SDS011;4425;50.872;4.712;2023-07-02T13:12:36;18.20;;;10.32;;
8777;SDS011;4425;50.872;4.712;2023-07-02T13:15:03;18.55;;;9.18;;
8777;SDS011;4425;50.872;4.712;2023-07-02T13:17:31;23.23;;;9.68;;
8777;SDS011;4425;50.872;4.712;2023-07-02T13:19:59;36.88;;;10.98;;
8777;SDS011;4425;50.872;4.712;2023-07-02T13:22:26;20.58;;;10.45;;
8777;SDS011;4425;50.872;4.712;2023-07-02T13:24:53;15.70;;;10.60;;
8777;SDS011;4425;50.872;4.712;2023-07-02T13:27:20;18.08;;;10.55;;
8777;SDS011;4425;50.872;4.712;2023-07-02T13:29:47;16.35;;;10.50;;
8777;SDS011;4425;50.872;4.712;2023-07-02T13:32:14;17.88;;;10.13;;
8777;SDS011;4425;50.872;4.712;2023-07-02T13:34:41;20.95;;;9.82;;
8777;SDS011;4425;50.872;4.712;2023-07-02T13:37:09;16.38;;;9.18;;
8777;SDS011;4425;50.872;4.712;2023-07-02T13:39:36;15.93;;;9.73;;
8777;SDS011;4425;50.872;4.712;2023-07-02T13:42:03;16.73;;;9.35;;
8777;SDS011;4425;50.872;4.712;2023-07-02T13:44:31;16.15;;;9.23;;
8777;SDS011;4425;50.872;4.712;2023-07-02T13:46:58;17.77;;;9.63;;
8777;SDS011;4425;50.872;4.712;2023-07-02T13:49:25;15.30;;;8.90;;
8777;SDS011;4425;50.872;4.712;2023-07-02T13:51:52;15.98;;;9.60;;
8777;SDS011;4425;50.872;4.712;2023-07-02T13:54:29;16.45;;;9.48;;
8777;SDS011;4425;50.872;4.712;2023-07-02T13:56:56;17.67;;;9.07;;
8777;SDS011;4425;50.872;4.712;2023-07-02T13:59:25;18.00;;;8.85;;
8777;SDS011;4425;50.872;4.712;2023-07-02T14:01:52;15.88;;;9.18;;
8777;SDS011;4425;50.872;4.712;2023-07-02T14:04:19;20.75;;;9.80;;
8777;SDS011;4425;50.872;4.712;2023-07-02T14:06:46;16.60;;;9.70;;
8777;SDS011;4425;50.872;4.712;2023-07-02T14:09:12;15.48;;;8.40;;
8777;SDS011;4425;50.872;4.712;2023-07-02T14:11:40;13.65;;;8.73;;
8777;SDS011;4425;50.872;4.712;2023-07-02T14:14:08;17.88;;;8.43;;
8777;SDS011;4425;50.872;4.712;2023-07-02T14:16:37;16.75;;;8.32;;
8777;SDS011;4425;50.872;4.712;2023-07-02T14:19:04;16.77;;;9.63;;
8777;SDS011;4425;50.872;4.712;2023-07-02T14:21:31;16.75;;;8.90;;
8777;SDS011;4425;50.872;4.712;2023-07-02T14:23:58;20.38;;;9.00;;
8777;SDS011;4425;50.872;4.712;2023-07-02T14:26:25;18.42;;;9.85;;
8777;SDS011;4425;50.872;4.712;2023-07-02T14:28:55;16.00;;;8.70;;
8777;SDS011;4425;50.872;4.712;2023-07-02T14:31:24;19.48;;;9.57;;
8777;SDS011;4425;50.872;4.712;2023-07-02T14:33:52;16.67;;;9.23;;
8777;SDS011;4425;50.872;4.712;2023-07-02T14:36:19;20.77;;;9.35;;
8777;SDS011;4425;50.872;4.712;2023-07-02T14:38:46;17.58;;;9.10;;
8777;SDS011;4425;50.872;4.712;2023-07-02T14:41:13;17.67;;;8.73;;
8777;SDS011;4425;50.872;4.712;2023-07-02T14:43:40;18.35;;;9.10;;
8777;SDS011;4425;50.872;4.712;2023-07-02T14:46:08;16.58;;;9.23;;
8777;SDS011;4425;50.872;4.712;2023-07-02T14:48:35;15.18;;;9.23;;
8777;SDS011;4425;50.872;4.712;2023-07-02T14:51:03;20.55;;;9.10;;
8777;SDS011;4425;50.872;4.712;2023-07-02T14:53:30;16.25;;;8.93;;
8777;SDS011;4425;50.872;4.712;2023-07-02T14:55:59;15.90;;;9.25;;
8777;SDS011;4425;50.872;4.712;2023-07-02T14:58:28;15.82;;;9.63;;
8777;SDS011;4425;50.872;4.712;2023-07-02T15:00:56;17.50;;;9.35;;
8777;SDS011;4425;50.872;4.712;2023-07-02T15:03:24;15.35;;;9.30;;
8777;SDS011;4425;50.872;4.712;2023-07-02T15:05:52;16.13;;;9.68;;
8777;SDS011;4425;50.872;4.712;2023-07-02T15:08:21;17.17;;;9.43;;
8777;SDS011;4425;50.872;4.712;2023-07-02T15:10:49;15.43;;;9.13;;
8777;SDS011;4425;50.872;4.712;2023-07-02T15:13:17;12.73;;;8.10;;
8777;SDS011;4425;50.872;4.712;2023-07-02T15:15:48;19.10;;;9.30;;
8777;SDS011;4425;50.872;4.712;2023-07-02T15:18:15;15.48;;;8.77;;
8777;SDS011;4425;50.872;4.712;2023-07-02T15:20:45;16.50;;;8.82;;
8777;SDS011;4425;50.872;4.712;2023-07-02T15:23:13;20.15;;;9.88;;
8777;SDS011;4425;50.872;4.712;2023-07-02T15:25:41;19.38;;;9.68;;
8777;SDS011;4425;50.872;4.712;2023-07-02T15:28:08;16.45;;;8.73;;
8777;SDS011;4425;50.872;4.712;2023-07-02T15:30:37;19.13;;;9.68;;
8777;SDS011;4425;50.872;4.712;2023-07-02T15:33:05;18.00;;;9.52;;
8777;SDS011;4425;50.872;4.712;2023-07-02T15:35:32;16.33;;;9.48;;
8777;SDS011;4425;50.872;4.712;2023-07-02T15:37:58;15.75;;;8.90;;
8777;SDS011;4425;50.872;4.712;2023-07-02T15:40:25;23.52;;;8.77;;
8777;SDS011;4425;50.872;4.712;2023-07-02T15:42:54;18.27;;;8.68;;
8777;SDS011;4425;50.872;4.712;2023-07-02T15:45:21;22.55;;;9.50;;
8777;SDS011;4425;50.872;4.712;2023-07-02T15:47:48;18.85;;;8.93;;
8777;SDS011;4425;50.872;4.712;2023-07-02T15:50:15;14.27;;;8.38;;
8777;SDS011;4425;50.872;4.712;2023-07-02T15:52:42;15.77;;;8.45;;
8777;SDS011;4425;50.872;4.712;2023-07-02T15:55:09;16.05;;;8.57;;
8777;SDS011;4425;50.872;4.712;2023-07-02T15:57:36;15.30;;;8.55;;
8777;SDS011;4425;50.872;4.712;2023-07-02T16:00:05;17.45;;;8.80;;
8777;SDS011;4425;50.872;4.712;2023-07-02T16:02:33;16.70;;;8.52;;
8777;SDS011;4425;50.872;4.712;2023-07-02T16:05:00;20.48;;;9.23;;
8777;SDS011;4425;50.872;4.712;2023-07-02T16:07:27;21.20;;;8.70;;
8777;SDS011;4425;50.872;4.712;2023-07-02T16:09:54;16.35;;;8.27;;
8777;SDS011;4425;50.872;4.712;2023-07-02T16:12:21;17.05;;;8.27;;
8777;SDS011;4425;50.872;4.712;2023-07-02T16:14:48;15.63;;;8.02;;
8777;SDS011;4425;50.872;4.712;2023-07-02T16:17:16;17.17;;;8.00;;
8777;SDS011;4425;50.872;4.712;2023-07-02T16:19:43;20.73;;;8.50;;
8777;SDS011;4425;50.872;4.712;2023-07-02T16:22:10;17.13;;;8.75;;
8777;SDS011;4425;50.872;4.712;2023-07-02T16:24:37;22.33;;;9.93;;
8777;SDS011;4425;50.872;4.712;2023-07-02T16:27:05;15.60;;;8.98;;
8777;SDS011;4425;50.872;4.712;2023-07-02T16:29:35;14.10;;;8.52;;
8777;SDS011;4425;50.872;4.712;2023-07-02T16:32:03;13.98;;;8.50;;
8777;SDS011;4425;50.872;4.712;2023-07-02T16:34:32;19.48;;;8.45;;
8777;SDS011;4425;50.872;4.712;2023-07-02T16:36:59;21.30;;;8.20;;
8777;SDS011;4425;50.872;4.712;2023-07-02T16:39:26;14.02;;;8.43;;
8777;SDS011;4425;50.872;4.712;2023-07-02T16:41:52;20.52;;;8.13;;
8777;SDS011;4425;50.872;4.712;2023-07-02T16:44:20;22.20;;;8.35;;
8777;SDS011;4425;50.872;4.712;2023-07-02T16:46:49;16.35;;;7.88;;
8777;SDS011;4425;50.872;4.712;2023-07-02T16:49:19;16.50;;;8.38;;
8777;SDS011;4425;50.872;4.712;2023-07-02T16:51:48;13.50;;;7.53;;
8777;SDS011;4425;50.872;4.712;2023-07-02T16:54:17;15.98;;;7.90;;
8777;SDS011;4425;50.872;4.712;2023-07-02T16:56:47;18.52;;;7.28;;
8777;SDS011;4425;50.872;4.712;2023-07-02T16:59:16;13.48;;;6.55;;
8777;SDS011;4425;50.872;4.712;2023-07-02T17:01:45;19.23;;;7.47;;
8777;SDS011;4425;50.872;4.712;2023-07-02T17:04:13;16.88;;;7.03;;
8777;SDS011;4425;50.872;4.712;2023-07-02T17:06:41;13.00;;;6.75;;
8777;SDS011;4425;50.872;4.712;2023-07-02T17:09:21;12.93;;;6.13;;
8777;SDS011;4425;50.872;4.712;2023-07-02T17:11:50;16.10;;;6.47;;
8777;SDS011;4425;50.872;4.712;2023-07-02T17:14:20;13.23;;;6.13;;
8777;SDS011;4425;50.872;4.712;2023-07-02T17:16:48;14.20;;;6.40;;
8777;SDS011;4425;50.872;4.712;2023-07-02T17:19:17;16.35;;;5.80;;
8777;SDS011;4425;50.872;4.712;2023-07-02T17:21:46;16.27;;;6.00;;
8777;SDS011;4425;50.872;4.712;2023-07-02T17:24:17;14.13;;;5.90;;
8777;SDS011;4425;50.872;4.712;2023-07-02T17:26:47;15.57;;;6.13;;
8777;SDS011;4425;50.872;4.712;2023-07-02T17:29:14;15.55;;;6.25;;
8777;SDS011;4425;50.872;4.712;2023-07-02T17:31:44;14.52;;;6.10;;
8777;SDS011;4425;50.872;4.712;2023-07-02T17:34:13;18.13;;;6.55;;
8777;SDS011;4425;50.872;4.712;2023-07-02T17:36:44;15.23;;;5.68;;
8777;SDS011;4425;50.872;4.712;2023-07-02T17:39:13;11.90;;;5.28;;
8777;SDS011;4425;50.872;4.712;2023-07-02T17:41:42;12.35;;;5.47;;
8777;SDS011;4425;50.872;4.712;2023-07-02T17:44:09;13.35;;;5.68;;
8777;SDS011;4425;50.872;4.712;2023-07-02T17:46:36;10.38;;;5.10;;
8777;SDS011;4425;50.872;4.712;2023-07-02T17:49:03;11.27;;;5.47;;
8777;SDS011;4425;50.872;4.712;2023-07-02T17:51:31;17.85;;;5.63;;
8777;SDS011;4425;50.872;4.712;2023-07-02T17:53:59;19.17;;;6.28;;
8777;SDS011;4425;50.872;4.712;2023-07-02T17:56:26;23.45;;;6.00;;
8777;SDS011;4425;50.872;4.712;2023-07-02T17:58:54;15.20;;;5.70;;
8777;SDS011;4425;50.872;4.712;2023-07-02T18:01:21;11.55;;;5.38;;
8777;SDS011;4425;50.872;4.712;2023-07-02T18:03:49;17.15;;;5.18;;
8777;SDS011;4425;50.872;4.712;2023-07-02T18:06:16;15.95;;;5.63;;
8777;SDS011;4425;50.872;4.712;2023-07-02T18:08:43;15.18;;;5.15;;
8777;SDS011;4425;50.872;4.712;2023-07-02T18:11:10;14.68;;;4.60;;
8777;SDS011;4425;50.872;4.712;2023-07-02T18:13:37;13.27;;;4.93;;
8777;SDS011;4425;50.872;4.712;2023-07-02T18:16:06;18.35;;;5.05;;
8777;SDS011;4425;50.872;4.712;2023-07-02T18:18:33;14.13;;;5.03;;
8777;SDS011;4425;50.872;4.712;2023-07-02T18:21:00;13.75;;;4.50;;
8777;SDS011;4425;50.872;4.712;2023-07-02T18:23:27;13.25;;;4.82;;
8777;SDS011;4425;50.872;4.712;2023-07-02T18:25:54;14.57;;;5.00;;
8777;SDS011;4425;50.872;4.712;2023-07-02T18:28:23;16.38;;;5.25;;
8777;SDS011;4425;50.872;4.712;2023-07-02T18:30:50;22.25;;;5.25;;
8777;SDS011;4425;50.872;4.712;2023-07-02T18:33:19;12.40;;;4.43;;
8777;SDS011;4425;50.872;4.712;2023-07-02T18:35:46;15.57;;;4.43;;
8777;SDS011;4425;50.872;4.712;2023-07-02T18:38:13;15.07;;;4.35;;
8777;SDS011;4425;50.872;4.712;2023-07-02T18:40:41;13.25;;;4.70;;
8777;SDS011;4425;50.872;4.712;2023-07-02T18:43:09;11.23;;;4.65;;
8777;SDS011;4425;50.872;4.712;2023-07-02T18:45:37;12.52;;;4.70;;
8777;SDS011;4425;50.872;4.712;2023-07-02T18:48:04;11.27;;;4.40;;
8777;SDS011;4425;50.872;4.712;2023-07-02T18:50:33;9.95;;;3.90;;
8777;SDS011;4425;50.872;4.712;2023-07-02T18:53:00;0.60;;;0.60;;
8777;SDS011;4425;50.872;4.712;2023-07-02T18:55:30;7.72;;;1.42;;
8777;SDS011;4425;50.872;4.712;2023-07-02T18:57:57;15.10;;;3.90;;
8777;SDS011;4425;50.872;4.712;2023-07-02T19:00:23;5.75;;;2.80;;
8777;SDS011;4425;50.872;4.712;2023-07-02T19:02:50;1.10;;;1.02;;
8777;SDS011;4425;50.872;4.712;2023-07-02T19:05:17;1.80;;;0.90;;
8777;SDS011;4425;50.872;4.712;2023-07-02T19:07:46;4.47;;;0.95;;
8777;SDS011;4425;50.872;4.712;2023-07-02T19:10:13;16.92;;;4.28;;
8777;SDS011;4425;50.872;4.712;2023-07-02T19:12:41;1.48;;;1.42;;
8777;SDS011;4425;50.872;4.712;2023-07-02T19:15:10;12.30;;;3.70;;
8777;SDS011;4425;50.872;4.712;2023-07-02T19:17:37;12.65;;;4.05;;
8777;SDS011;4425;50.872;4.712;2023-07-02T19:20:05;8.48;;;3.30;;
8777;SDS011;4425;50.872;4.712;2023-07-02T19:22:32;9.02;;;3.85;;
8777;SDS011;4425;50.872;4.712;2023-07-02T19:25:00;13.48;;;3.90;;
8777;SDS011;4425;50.872;4.712;2023-07-02T19:27:27;12.27;;;3.85;;
8777;SDS011;4425;50.872;4.712;2023-07-02T19:29:54;18.58;;;4.25;;
8777;SDS011;4425;50.872;4.712;2023-07-02T19:32:26;14.73;;;4.45;;
8777;SDS011;4425;50.872;4.712;2023-07-02T19:34:57;20.75;;;4.03;;
8777;SDS011;4425;50.872;4.712;2023-07-02T19:37:24;10.82;;;3.92;;
8777;SDS011;4425;50.872;4.712;2023-07-02T19:39:52;19.80;;;4.55;;
8777;SDS011;4425;50.872;4.712;2023-07-02T19:42:20;10.27;;;3.53;;
8777;SDS011;4425;50.872;4.712;2023-07-02T19:44:51;13.25;;;4.57;;
8777;SDS011;4425;50.872;4.712;2023-07-02T19:47:19;11.48;;;3.50;;
8777;SDS011;4425;50.872;4.712;2023-07-02T19:49:46;14.57;;;4.22;;
8777;SDS011;4425;50.872;4.712;2023-07-02T19:52:17;9.95;;;3.95;;
8777;SDS011;4425;50.872;4.712;2023-07-02T19:54:45;11.93;;;4.03;;
8777;SDS011;4425;50.872;4.712;2023-07-02T19:57:13;13.73;;;3.90;;
8777;SDS011;4425;50.872;4.712;2023-07-02T19:59:43;15.10;;;4.50;;
8777;SDS011;4425;50.872;4.712;2023-07-02T20:02:11;11.65;;;4.00;;
8777;SDS011;4425;50.872;4.712;2023-07-02T20:04:43;14.90;;;4.50;;
8777;SDS011;4425;50.872;4.712;2023-07-02T20:07:11;13.73;;;4.47;;
8777;SDS011;4425;50.872;4.712;2023-07-02T20:09:38;10.52;;;4.07;;
8777;SDS011;4425;50.872;4.712;2023-07-02T20:12:07;13.82;;;3.97;;
8777;SDS011;4425;50.872;4.712;2023-07-02T20:14:35;14.73;;;4.05;;
8777;SDS011;4425;50.872;4.712;2023-07-02T20:17:04;12.13;;;4.03;;
8777;SDS011;4425;50.872;4.712;2023-07-02T20:19:31;15.73;;;3.58;;
8777;SDS011;4425;50.872;4.712;2023-07-02T20:21:58;14.18;;;3.60;;
8777;SDS011;4425;50.872;4.712;2023-07-02T20:24:25;11.75;;;4.03;;
8777;SDS011;4425;50.872;4.712;2023-07-02T20:26:53;11.50;;;4.60;;
8777;SDS011;4425;50.872;4.712;2023-07-02T20:29:22;11.00;;;4.03;;
8777;SDS011;4425;50.872;4.712;2023-07-02T20:31:49;15.15;;;3.95;;
8777;SDS011;4425;50.872;4.712;2023-07-02T20:34:18;9.65;;;3.47;;
8777;SDS011;4425;50.872;4.712;2023-07-02T20:36:46;19.52;;;4.30;;
8777;SDS011;4425;50.872;4.712;2023-07-02T20:39:18;13.55;;;4.40;;
8777;SDS011;4425;50.872;4.712;2023-07-02T20:41:46;10.90;;;3.83;;
8777;SDS011;4425;50.872;4.712;2023-07-02T20:44:13;11.07;;;4.00;;
8777;SDS011;4425;50.872;4.712;2023-07-02T20:46:41;14.43;;;4.50;;
8777;SDS011;4425;50.872;4.712;2023-07-02T20:49:11;15.45;;;4.78;;
8777;SDS011;4425;50.872;4.712;2023-07-02T20:51:41;13.90;;;4.38;;
8777;SDS011;4425;50.872;4.712;2023-07-02T20:54:08;13.50;;;4.20;;
8777;SDS011;4425;50.872;4.712;2023-07-02T20:56:35;15.50;;;4.10;;
8777;SDS011;4425;50.872;4.712;2023-07-02T20:59:02;14.57;;;4.28;;
8777;SDS011;4425;50.872;4.712;2023-07-02T21:01:29;8.70;;;3.72;;
8777;SDS011;4425;50.872;4.712;2023-07-02T21:03:56;13.73;;;4.55;;
8777;SDS011;4425;50.872;4.712;2023-07-02T21:06:25;11.73;;;4.22;;
8777;SDS011;4425;50.872;4.712;2023-07-02T21:08:54;12.18;;;4.15;;
8777;SDS011;4425;50.872;4.712;2023-07-02T21:11:21;18.50;;;4.70;;
8777;SDS011;4425;50.872;4.712;2023-07-02T21:13:48;11.25;;;3.88;;
8777;SDS011;4425;50.872;4.712;2023-07-02T21:16:15;16.30;;;4.20;;
8777;SDS011;4425;50.872;4.712;2023-07-02T21:18:42;12.45;;;4.32;;
8777;SDS011;4425;50.872;4.712;2023-07-02T21:21:09;12.00;;;4.23;;
8777;SDS011;4425;50.872;4.712;2023-07-02T21:23:36;12.27;;;4.40;;
8777;SDS011;4425;50.872;4.712;2023-07-02T21:26:04;12.57;;;4.07;;
8777;SDS011;4425;50.872;4.712;2023-07-02T21:28:32;13.43;;;3.90;;
8777;SDS011;4425;50.872;4.712;2023-07-02T21:30:59;14.57;;;4.13;;
8777;SDS011;4425;50.872;4.712;2023-07-02T21:33:26;12.70;;;4.30;;
8777;SDS011;4425;50.872;4.712;2023-07-02T21:35:53;12.57;;;4.43;;
8777;SDS011;4425;50.872;4.712;2023-07-02T21:38:26;14.03;;;4.20;;
8777;SDS011;4425;50.872;4.712;2023-07-02T21:40:53;11.30;;;3.83;;
8777;SDS011;4425;50.872;4.712;2023-07-02T21:43:21;12.67;;;4.00;;
8777;SDS011;4425;50.872;4.712;2023-07-02T21:45:51;14.75;;;4.30;;
8777;SDS011;4425;50.872;4.712;2023-07-02T21:48:19;9.03;;;4.13;;
8777;SDS011;4425;50.872;4.712;2023-07-02T21:50:45;11.53;;;3.70;;
8777;SDS011;4425;50.872;4.712;2023-07-02T21:53:12;12.80;;;4.83;;
8777;SDS011;4425;50.872;4.712;2023-07-02T21:55:39;7.77;;;3.67;;
8777;SDS011;4425;50.872;4.712;2023-07-02T21:58:06;10.37;;;4.13;;
8777;SDS011;4425;50.872;4.712;2023-07-02T22:00:34;17.70;;;4.20;;
8777;SDS011;4425;50.872;4.712;2023-07-02T22:03:01;12.03;;;3.90;;
8777;SDS011;4425;50.872;4.712;2023-07-02T22:05:28;12.90;;;4.20;;
8777;SDS011;4425;50.872;4.712;2023-07-02T22:07:55;11.40;;;4.37;;
8777;SDS011;4425;50.872;4.712;2023-07-02T22:10:22;13.53;;;4.03;;
8777;SDS011;4425;50.872;4.712;2023-07-02T22:12:55;12.03;;;4.13;;
8777;SDS011;4425;50.872;4.712;2023-07-02T22:15:22;15.40;;;4.50;;
8777;SDS011;4425;50.872;4.712;2023-07-02T22:17:51;9.83;;;4.30;;
8777;SDS011;4425;50.872;4.712;2023-07-02T22:20:18;15.50;;;4.10;;
8777;SDS011;4425;50.872;4.712;2023-07-02T22:22:45;15.37;;;4.13;;
8777;SDS011;4425;50.872;4.712;2023-07-02T22:25:13;17.80;;;4.60;;
8777;SDS011;4425;50.872;4.712;2023-07-02T22:27:42;17.07;;;4.40;;
8777;SDS011;4425;50.872;4.712;2023-07-02T22:30:10;19.00;;;4.50;;
8777;SDS011;4425;50.872;4.712;2023-07-02T22:32:38;14.03;;;3.70;;
8777;SDS011;4425;50.872;4.712;2023-07-02T22:35:06;13.07;;;4.37;;
8777;SDS011;4425;50.872;4.712;2023-07-02T22:37:35;18.00;;;4.33;;
8777;SDS011;4425;50.872;4.712;2023-07-02T22:40:04;13.10;;;4.13;;
8777;SDS011;4425;50.872;4.712;2023-07-02T22:42:34;15.23;;;4.60;;
8777;SDS011;4425;50.872;4.712;2023-07-02T22:45:03;16.67;;;4.73;;
8777;SDS011;4425;50.872;4.712;2023-07-02T22:47:30;18.70;;;4.77;;
8777;SDS011;4425;50.872;4.712;2023-07-02T22:49:57;14.93;;;4.27;;
8777;SDS011;4425;50.872;4.712;2023-07-02T22:52:26;14.13;;;4.60;;
8777;SDS011;4425;50.872;4.712;2023-07-02T22:54:53;22.90;;;4.80;;
8777;SDS011;4425;50.872;4.712;2023-07-02T22:57:21;11.63;;;4.13;;
8777;SDS011;4425;50.872;4.712;2023-07-02T22:59:48;12.77;;;4.37;;
8777;SDS011;4425;50.872;4.712;2023-07-02T23:02:15;20.00;;;5.20;;
8777;SDS011;4425;50.872;4.712;2023-07-02T23:04:42;12.90;;;4.37;;
8777;SDS011;4425;50.872;4.712;2023-07-02T23:07:09;14.00;;;4.60;;